Jupiter, FL (33458)

4:18 AM EDT on July 03, 2015 (GMT -0400)
Pennock Ln. | | Change Station
CLOSE
Current Station
Personal Weather Station
Location: Jupiter, FL
Elevation: 20 ft
Nearby Weather Stations

Elev 20 ft 26.94 °N, 80.11 °W | Updated 12 seconds ago

Clear
Clear
75.5 °F
Feels Like 75 °F
N
0.0
Wind Variable Wind from NW
Gusts 0.0 mph

Today
High -- | Low -- °F
--% Chance of Precip.
Yesterday
High -- | Low -- °F
Precip. -- in
6:30 AM 8:18 PM
Full, 98% visible
Pressure 30.06 in
Visibility 10.0 miles
Clouds Few 2200 ft
Scattered Clouds 20000 ft
Heat Index 75 °F
Dew Point 72 °F
Humidity 88%
Rainfall 0.00 in
Snow Depth Not available.
UV 0.0 out of 12
Pollen 4.20 out of 12
Air Quality Not available.
Flu Activity Not available.
METAR KPBI 030753Z 13005KT 10SM FEW022 SCT200 27/23 A3006 RMK AO2 SLP178 T02670233 $

More Conditions Fewer Conditions

Pressure 30.06 in
Visibility 10.0 miles
Clouds Few 2200 ft
Scattered Clouds 20000 ft
Heat Index 75 °F
Dew Point 72 °F
Humidity 88%
Rainfall 0.00 in
Snow Depth Not available.
UV 0.0 out of 12
Pollen 4.20 out of 12
Air Quality Not available.
Flu Activity Not available.
METAR KPBI 030753Z 13005KT 10SM FEW022 SCT200 27/23 A3006 RMK AO2 SLP178 T02670233 $

More Conditions Fewer Conditions

10-Day Weather Forecast

×

Almanac

Astronomy

Jul. 03, 2015 Rise Set
Actual Time
Civil Twilight
Nautical Twilight
Astronomical Twilight
Moon
Length of Visible Light
Length of Day
Tomorrow will be .
, % of the Moon is Illuminated

Today's Extremes

State Highs State Lows

Community

WunderPhotos

Upload Photos

1,834,634 photos uploaded!

WunderBlogs® & News

Nearby

Air Quality

  Air Quality AQ Index Pollutant
Not available.

Snow Depth

Station Depth Elevation

Earthquake Activity

City Distance Mag. Time & Date
Minimum magnitude displayed is 2.5.

Coastal Water Temperatures

Place Temperature

Stations

Nearby Weather Stations

Station Location Temp. Windchill Dew Point Humidity Wind Precip. Elev Updated Type